AFR239 KMCO-GOBD
Flight info
| Callsign | AFR239 |
|---|---|
| Flight time | N/A |
| Altitude | 35000 |
| Route | MZULO3 LENDS M203 SNAGY/M083F350 DCT 29N060W 29N057W DCT 2950N DCT 2945N DCT 28N042W DCT 2740N DCT 24N034W DCT ULTEM/N0490F350 UR976 LUMPO R976 LIGOV |
| Aircraft | B77W/H-SDE1E2E3FGHIJ2J3J4J5M1RWXY/LB1D1 |
Departure
| Time | N/A |
|---|---|
| Airport | Orlando International Airport (KMCO) |
Arrival
| Time | 2026-04-25 21:04 |
|---|---|
| Airport | Blaise Diagne International Airport (GOBD) |
| Time | Latitude | Longitude | Altitude | Speed | Heading |
|---|---|---|---|---|---|
| 2026-04-25 19:19 | 20.61042 | -28.47148 | 38061 ft | 577 kts | 128° |
| 2026-04-25 19:19 | 20.58575 | -28.43490 | 38058 ft | 577 kts | 129° |
| 2026-04-25 19:20 | 20.53998 | -28.36712 | 38058 ft | 576 kts | 129° |
| 2026-04-25 19:20 | 20.49343 | -28.29826 | 38060 ft | 576 kts | 129° |
| 2026-04-25 19:21 | 20.44631 | -28.22864 | 38053 ft | 575 kts | 129° |
| 2026-04-25 19:21 | 20.37623 | -28.12525 | 38055 ft | 575 kts | 129° |
| 2026-04-25 19:22 | 20.32931 | -28.05613 | 38049 ft | 574 kts | 129° |
| 2026-04-25 19:23 | 20.25935 | -27.95322 | 38052 ft | 574 kts | 129° |
| 2026-04-25 19:23 | 20.18907 | -27.85002 | 38051 ft | 573 kts | 129° |
| 2026-04-25 19:24 | 20.14224 | -27.78135 | 38050 ft | 573 kts | 129° |
| 2026-04-25 19:25 | 20.04858 | -27.64427 | 38045 ft | 572 kts | 129° |
| 2026-04-25 19:25 | 20.00172 | -27.57579 | 38036 ft | 572 kts | 129° |
| 2026-04-25 19:26 | 19.95492 | -27.50749 | 38045 ft | 572 kts | 129° |
| 2026-04-25 19:26 | 19.90804 | -27.43915 | 38054 ft | 572 kts | 129° |
| 2026-04-25 19:27 | 19.86911 | -27.38246 | 38046 ft | 571 kts | 129° |
| 2026-04-25 19:27 | 19.81463 | -27.30322 | 38046 ft | 571 kts | 129° |
| 2026-04-25 19:28 | 19.76776 | -27.23513 | 38041 ft | 570 kts | 129° |
| 2026-04-25 19:28 | 19.72092 | -27.16715 | 38041 ft | 570 kts | 129° |
| 2026-04-25 19:29 | 19.67412 | -27.09931 | 38035 ft | 570 kts | 129° |
| 2026-04-25 19:29 | 19.62731 | -27.03154 | 38041 ft | 569 kts | 129° |
| 2026-04-25 19:30 | 19.58054 | -26.96390 | 38037 ft | 569 kts | 129° |
| 2026-04-25 19:30 | 19.53374 | -26.89629 | 38030 ft | 568 kts | 129° |
| 2026-04-25 19:31 | 19.48699 | -26.82883 | 38034 ft | 568 kts | 129° |
| 2026-04-25 19:31 | 19.44019 | -26.76138 | 38031 ft | 567 kts | 129° |
| 2026-04-25 19:32 | 19.39349 | -26.69413 | 38034 ft | 566 kts | 129° |
| 2026-04-25 19:32 | 19.36263 | -26.64973 | 38034 ft | 565 kts | 129° |
| 2026-04-25 19:33 | 19.30055 | -26.56053 | 38030 ft | 564 kts | 129° |
| 2026-04-25 19:33 | 19.25404 | -26.49379 | 38031 ft | 563 kts | 129° |
| 2026-04-25 19:34 | 19.20757 | -26.42716 | 38032 ft | 562 kts | 129° |
| 2026-04-25 19:34 | 19.16122 | -26.36079 | 38029 ft | 560 kts | 129° |
| 2026-04-25 19:35 | 19.11494 | -26.29458 | 38024 ft | 559 kts | 129° |
| 2026-04-25 19:35 | 19.06868 | -26.22847 | 38029 ft | 559 kts | 129° |
| 2026-04-25 19:36 | 19.02249 | -26.16253 | 38025 ft | 558 kts | 129° |
| 2026-04-25 19:36 | 19.01499 | -26.15183 | 38024 ft | 558 kts | 129° |
| 2026-04-25 19:37 | 18.93039 | -26.03110 | 38027 ft | 557 kts | 129° |
| 2026-04-25 19:37 | 18.88448 | -25.96485 | 38027 ft | 557 kts | 129° |
| 2026-04-25 19:38 | 18.83907 | -25.89917 | 38024 ft | 556 kts | 129° |
| 2026-04-25 19:38 | 18.79337 | -25.83324 | 38017 ft | 556 kts | 129° |
| 2026-04-25 19:39 | 18.74766 | -25.76743 | 38022 ft | 555 kts | 129° |
| 2026-04-25 19:39 | 18.70226 | -25.70218 | 38014 ft | 554 kts | 129° |
| 2026-04-25 19:40 | 18.65666 | -25.63669 | 38019 ft | 554 kts | 129° |
| 2026-04-25 19:40 | 18.61113 | -25.57137 | 38017 ft | 553 kts | 129° |
| 2026-04-25 19:41 | 18.56558 | -25.50607 | 38017 ft | 553 kts | 129° |
| 2026-04-25 19:41 | 18.53509 | -25.46241 | 38018 ft | 552 kts | 129° |
| 2026-04-25 19:42 | 18.47450 | -25.37572 | 38013 ft | 552 kts | 129° |
| 2026-04-25 19:42 | 18.42892 | -25.31058 | 38012 ft | 552 kts | 129° |
| 2026-04-25 19:43 | 18.38341 | -25.24563 | 38011 ft | 551 kts | 129° |
| 2026-04-25 19:43 | 18.33788 | -25.18069 | 38009 ft | 551 kts | 129° |
| 2026-04-25 19:44 | 18.29239 | -25.11588 | 38012 ft | 551 kts | 129° |
| 2026-04-25 19:44 | 18.24686 | -25.05108 | 38023 ft | 550 kts | 129° |
| 2026-04-25 19:45 | 18.20136 | -24.98639 | 38001 ft | 550 kts | 129° |
| 2026-04-25 19:45 | 18.15583 | -24.92172 | 37999 ft | 550 kts | 129° |
| 2026-04-25 19:46 | 18.11027 | -24.85708 | 38014 ft | 549 kts | 129° |
| 2026-04-25 19:46 | 18.06471 | -24.79249 | 38014 ft | 549 kts | 129° |
| 2026-04-25 19:47 | 18.04198 | -24.76029 | 38011 ft | 549 kts | 129° |
| 2026-04-25 19:47 | 17.97375 | -24.66374 | 38002 ft | 548 kts | 129° |
| 2026-04-25 19:48 | 17.92845 | -24.59970 | 37999 ft | 548 kts | 129° |
| 2026-04-25 19:48 | 17.88326 | -24.53586 | 37940 ft | 532 kts | 129° |
| 2026-04-25 19:49 | 17.87584 | -24.52537 | 37847 ft | 529 kts | 129° |
| 2026-04-25 19:49 | 17.80386 | -24.42390 | 37914 ft | 523 kts | 130° |
| 2026-04-25 19:50 | 17.73795 | -24.33111 | 38000 ft | 535 kts | 130° |
| 2026-04-25 19:51 | 17.69336 | -24.26855 | 38002 ft | 539 kts | 130° |
| 2026-04-25 19:51 | 17.64792 | -24.20546 | 38003 ft | 545 kts | 130° |
| 2026-04-25 19:52 | 17.60197 | -24.14179 | 37995 ft | 548 kts | 130° |
| 2026-04-25 19:52 | 17.55586 | -24.07782 | 37985 ft | 546 kts | 130° |
| 2026-04-25 19:52 | 17.53335 | -24.04653 | 37951 ft | 530 kts | 130° |
| 2026-04-25 19:53 | 17.52616 | -24.03653 | 37975 ft | 528 kts | 130° |
| 2026-04-25 19:54 | 17.42191 | -23.89220 | 37869 ft | 529 kts | 130° |
| 2026-04-25 19:54 | 17.37733 | -23.83054 | 37975 ft | 532 kts | 130° |
| 2026-04-25 19:55 | 17.32777 | -23.76209 | 37972 ft | 533 kts | 130° |
| 2026-04-25 19:55 | 17.28838 | -23.70766 | 37965 ft | 521 kts | 130° |
| 2026-04-25 19:56 | 17.24695 | -23.65049 | 37982 ft | 519 kts | 130° |
| 2026-04-25 19:56 | 17.20298 | -23.58997 | 37999 ft | 526 kts | 130° |
| 2026-04-25 19:57 | 17.15837 | -23.52859 | 37998 ft | 532 kts | 130° |
| 2026-04-25 19:57 | 17.11359 | -23.46699 | 37990 ft | 537 kts | 130° |
| 2026-04-25 19:58 | 17.06811 | -23.40448 | 37981 ft | 542 kts | 130° |
| 2026-04-25 19:58 | 17.02232 | -23.34159 | 37979 ft | 545 kts | 130° |
| 2026-04-25 19:59 | 16.97624 | -23.27836 | 37981 ft | 548 kts | 130° |
| 2026-04-25 19:59 | 16.92995 | -23.21492 | 37969 ft | 550 kts | 130° |
| 2026-04-25 20:00 | 16.88344 | -23.15122 | 37956 ft | 551 kts | 130° |
| 2026-04-25 20:00 | 16.83719 | -23.08793 | 37941 ft | 552 kts | 130° |
| 2026-04-25 20:01 | 16.76754 | -22.99239 | 37938 ft | 551 kts | 128° |
| 2026-04-25 20:01 | 16.72848 | -22.92342 | 37935 ft | 554 kts | 118° |
| 2026-04-25 20:02 | 16.69997 | -22.84868 | 37947 ft | 554 kts | 111° |
| 2026-04-25 20:02 | 16.67439 | -22.77280 | 37936 ft | 553 kts | 111° |
| 2026-04-25 20:03 | 16.64865 | -22.69736 | 37940 ft | 552 kts | 111° |
| 2026-04-25 20:03 | 16.62244 | -22.62208 | 37944 ft | 551 kts | 111° |
| 2026-04-25 20:04 | 16.59633 | -22.54759 | 37946 ft | 550 kts | 111° |
| 2026-04-25 20:04 | 16.57004 | -22.47263 | 37949 ft | 550 kts | 111° |
| 2026-04-25 20:05 | 16.54823 | -22.41042 | 37953 ft | 549 kts | 111° |
| 2026-04-25 20:05 | 16.51766 | -22.32323 | 37925 ft | 539 kts | 112° |
| 2026-04-25 20:06 | 16.49224 | -22.25083 | 37931 ft | 526 kts | 112° |
| 2026-04-25 20:06 | 16.47988 | -22.21568 | 37936 ft | 520 kts | 112° |
| 2026-04-25 20:09 | 16.34672 | -21.83854 | 37969 ft | 505 kts | 112° |
| 2026-04-25 20:09 | 16.32220 | -21.76932 | 37968 ft | 514 kts | 112° |
| 2026-04-25 20:10 | 16.29724 | -21.69889 | 37964 ft | 522 kts | 112° |
| 2026-04-25 20:10 | 16.27192 | -21.62781 | 37960 ft | 529 kts | 112° |
| 2026-04-25 20:11 | 16.24597 | -21.55564 | 37960 ft | 535 kts | 112° |
| 2026-04-25 20:11 | 16.21972 | -21.48276 | 37956 ft | 540 kts | 112° |
| 2026-04-25 20:12 | 16.19324 | -21.40922 | 37955 ft | 544 kts | 112° |
| 2026-04-25 20:12 | 16.17542 | -21.35975 | 37957 ft | 546 kts | 112° |
| 2026-04-25 20:13 | 16.13993 | -21.26132 | 37945 ft | 550 kts | 112° |
| 2026-04-25 20:13 | 16.11303 | -21.18680 | 37942 ft | 551 kts | 112° |
| 2026-04-25 20:14 | 16.08602 | -21.11210 | 37941 ft | 552 kts | 112° |
| 2026-04-25 20:14 | 16.05896 | -21.03738 | 37941 ft | 552 kts | 112° |
| 2026-04-25 20:15 | 16.03194 | -20.96281 | 37938 ft | 551 kts | 112° |
| 2026-04-25 20:15 | 16.00490 | -20.88831 | 37933 ft | 550 kts | 112° |
| 2026-04-25 20:16 | 15.97793 | -20.81410 | 37935 ft | 549 kts | 112° |
| 2026-04-25 20:16 | 15.95097 | -20.73998 | 37933 ft | 548 kts | 112° |
| 2026-04-25 20:17 | 15.92402 | -20.66599 | 37935 ft | 547 kts | 112° |
| 2026-04-25 20:17 | 15.89709 | -20.59215 | 37930 ft | 546 kts | 112° |
| 2026-04-25 20:18 | 15.87018 | -20.51846 | 37931 ft | 546 kts | 112° |
| 2026-04-25 20:18 | 15.84324 | -20.44478 | 37928 ft | 545 kts | 112° |
| 2026-04-25 20:19 | 15.81630 | -20.37118 | 37931 ft | 545 kts | 112° |
| 2026-04-25 20:19 | 15.78934 | -20.29758 | 37929 ft | 545 kts | 112° |
| 2026-04-25 20:20 | 15.76249 | -20.22440 | 37928 ft | 545 kts | 112° |
| 2026-04-25 20:20 | 15.73550 | -20.15092 | 37929 ft | 545 kts | 112° |
| 2026-04-25 20:21 | 15.70849 | -20.07744 | 37926 ft | 545 kts | 112° |
| 2026-04-25 20:21 | 15.68151 | -20.00412 | 37924 ft | 545 kts | 112° |
| 2026-04-25 20:22 | 15.66364 | -19.95488 | 37919 ft | 545 kts | 112° |
| 2026-04-25 20:22 | 15.62883 | -19.85673 | 37922 ft | 545 kts | 111° |
| 2026-04-25 20:23 | 15.61965 | -19.83082 | 37924 ft | 545 kts | 111° |
| 2026-04-25 20:23 | 15.57632 | -19.70921 | 37913 ft | 544 kts | 112° |
| 2026-04-25 20:24 | 15.55004 | -19.63576 | 37918 ft | 544 kts | 112° |
| 2026-04-25 20:24 | 15.52367 | -19.56210 | 37919 ft | 544 kts | 112° |
| 2026-04-25 20:25 | 15.49734 | -19.48860 | 37916 ft | 543 kts | 112° |
| 2026-04-25 20:25 | 15.47101 | -19.41519 | 37916 ft | 543 kts | 112° |
| 2026-04-25 20:26 | 15.44469 | -19.34188 | 37915 ft | 543 kts | 112° |
| 2026-04-25 20:26 | 15.41837 | -19.26861 | 37912 ft | 541 kts | 112° |
| 2026-04-25 20:27 | 15.39229 | -19.19597 | 37904 ft | 535 kts | 112° |
| 2026-04-25 20:27 | 15.37515 | -19.14821 | 37906 ft | 533 kts | 112° |
| 2026-04-25 20:28 | 15.34068 | -19.05220 | 37917 ft | 535 kts | 112° |
| 2026-04-25 20:28 | 15.31891 | -18.99159 | 37915 ft | 537 kts | 112° |
| 2026-04-25 20:29 | 15.28861 | -18.90729 | 37912 ft | 538 kts | 112° |
| 2026-04-25 20:29 | 15.26247 | -18.83457 | 37906 ft | 538 kts | 112° |
| 2026-04-25 20:30 | 15.23635 | -18.76197 | 37905 ft | 538 kts | 111° |
| 2026-04-25 20:30 | 15.21449 | -18.70120 | 37902 ft | 537 kts | 111° |
| 2026-04-25 20:31 | 15.18864 | -18.62935 | 37901 ft | 535 kts | 111° |
| 2026-04-25 20:31 | 15.16270 | -18.55725 | 37905 ft | 533 kts | 111° |
| 2026-04-25 20:32 | 15.13681 | -18.48531 | 37901 ft | 532 kts | 111° |
| 2026-04-25 20:32 | 15.11105 | -18.41374 | 37902 ft | 531 kts | 111° |
| 2026-04-25 20:33 | 15.08530 | -18.34218 | 37899 ft | 530 kts | 111° |
| 2026-04-25 20:33 | 15.06393 | -18.28284 | 37897 ft | 529 kts | 111° |
| 2026-04-25 20:34 | 15.03388 | -18.19939 | 37894 ft | 529 kts | 111° |
| 2026-04-25 20:34 | 15.00819 | -18.12807 | 37895 ft | 529 kts | 111° |
| 2026-04-25 20:35 | 14.98265 | -18.05720 | 37893 ft | 529 kts | 111° |
| 2026-04-25 20:35 | 14.95694 | -17.98587 | 37894 ft | 529 kts | 111° |
| 2026-04-25 20:36 | 14.93124 | -17.91460 | 37892 ft | 529 kts | 111° |
| 2026-04-25 20:36 | 14.90551 | -17.84326 | 37886 ft | 529 kts | 111° |
| 2026-04-25 20:37 | 14.87980 | -17.77199 | 37880 ft | 529 kts | 111° |
| 2026-04-25 20:37 | 14.85411 | -17.70083 | 37872 ft | 529 kts | 111° |
| 2026-04-25 20:38 | 14.82842 | -17.62965 | 37864 ft | 528 kts | 111° |
| 2026-04-25 20:38 | 14.80275 | -17.55857 | 37856 ft | 528 kts | 111° |
| 2026-04-25 20:39 | 14.77710 | -17.48754 | 37855 ft | 527 kts | 111° |
| 2026-04-25 20:39 | 14.75580 | -17.42859 | 37857 ft | 527 kts | 111° |
| 2026-04-25 20:40 | 14.73779 | -17.37875 | 37854 ft | 526 kts | 111° |
| 2026-04-25 20:40 | 14.71304 | -17.31078 | 37649 ft | 521 kts | 112° |
| 2026-04-25 20:41 | 14.69953 | -17.27618 | 37111 ft | 516 kts | 113° |
| 2026-04-25 20:41 | 14.68576 | -17.24210 | 36544 ft | 513 kts | 114° |
| 2026-04-25 20:41 | 14.67190 | -17.20825 | 36010 ft | 509 kts | 114° |
| 2026-04-25 20:41 | 14.65807 | -17.17475 | 35529 ft | 505 kts | 114° |
| 2026-04-25 20:42 | 14.64434 | -17.14176 | 35094 ft | 501 kts | 114° |
| 2026-04-25 20:42 | 14.63060 | -17.10896 | 34734 ft | 495 kts | 114° |
| 2026-04-25 20:42 | 14.61697 | -17.07664 | 34462 ft | 487 kts | 114° |
| 2026-04-25 20:42 | 14.60337 | -17.04458 | 34193 ft | 480 kts | 114° |
| 2026-04-25 20:43 | 14.59014 | -17.01357 | 33896 ft | 473 kts | 114° |
| 2026-04-25 20:43 | 14.57690 | -16.98267 | 33516 ft | 468 kts | 114° |
| 2026-04-25 20:43 | 14.56373 | -16.95209 | 33102 ft | 464 kts | 114° |
| 2026-04-25 20:43 | 14.55062 | -16.92182 | 32676 ft | 461 kts | 114° |
| 2026-04-25 20:44 | 14.53753 | -16.89172 | 32249 ft | 458 kts | 114° |
| 2026-04-25 20:44 | 14.52448 | -16.86190 | 31860 ft | 454 kts | 114° |
| 2026-04-25 20:44 | 14.51150 | -16.83237 | 31466 ft | 451 kts | 114° |
| 2026-04-25 20:44 | 14.49730 | -16.80371 | 31045 ft | 447 kts | 122° |
| 2026-04-25 20:45 | 14.47906 | -16.77814 | 30548 ft | 439 kts | 133° |
| 2026-04-25 20:45 | 14.45724 | -16.75642 | 29854 ft | 434 kts | 143° |
| 2026-04-25 20:45 | 14.43238 | -16.73915 | 29066 ft | 429 kts | 154° |
| 2026-04-25 20:45 | 14.40535 | -16.72693 | 28384 ft | 419 kts | 165° |
| 2026-04-25 20:46 | 14.37729 | -16.72004 | 27693 ft | 414 kts | 175° |
| 2026-04-25 20:46 | 14.34835 | -16.71781 | 26855 ft | 421 kts | 181° |
| 2026-04-25 20:46 | 14.31892 | -16.71773 | 26230 ft | 424 kts | 183° |
| 2026-04-25 20:46 | 14.28937 | -16.71836 | 25655 ft | 425 kts | 184° |
| 2026-04-25 20:47 | 14.25983 | -16.71926 | 25119 ft | 426 kts | 184° |
| 2026-04-25 20:47 | 14.23023 | -16.72026 | 24655 ft | 424 kts | 184° |
| 2026-04-25 20:47 | 14.20129 | -16.72131 | 24290 ft | 420 kts | 184° |
| 2026-04-25 20:47 | 14.17189 | -16.72242 | 23921 ft | 416 kts | 184° |
| 2026-04-25 20:48 | 14.14313 | -16.72353 | 23542 ft | 412 kts | 184° |
| 2026-04-25 20:48 | 14.11456 | -16.72466 | 23120 ft | 409 kts | 184° |
| 2026-04-25 20:48 | 14.08619 | -16.72578 | 22667 ft | 406 kts | 184° |
| 2026-04-25 20:48 | 14.05809 | -16.72687 | 22225 ft | 403 kts | 184° |
| 2026-04-25 20:49 | 14.03018 | -16.72793 | 21813 ft | 400 kts | 184° |
| 2026-04-25 20:49 | 14.00243 | -16.72895 | 21406 ft | 397 kts | 184° |
| 2026-04-25 20:49 | 13.97493 | -16.72994 | 20983 ft | 394 kts | 184° |
| 2026-04-25 20:49 | 13.94758 | -16.73089 | 20559 ft | 391 kts | 185° |
| 2026-04-25 20:50 | 13.92071 | -16.73398 | 20099 ft | 386 kts | 195° |
| 2026-04-25 20:50 | 13.89537 | -16.74227 | 19682 ft | 381 kts | 206° |
| 2026-04-25 20:50 | 13.87270 | -16.75522 | 19306 ft | 375 kts | 218° |
| 2026-04-25 20:50 | 13.85309 | -16.77251 | 18939 ft | 369 kts | 229° |
| 2026-04-25 20:51 | 13.83759 | -16.79322 | 18563 ft | 362 kts | 241° |
| 2026-04-25 20:51 | 13.82941 | -16.81729 | 18101 ft | 358 kts | 266° |
| 2026-04-25 20:51 | 13.83246 | -16.84243 | 17609 ft | 357 kts | 290° |
| 2026-04-25 20:51 | 13.84477 | -16.86442 | 17195 ft | 356 kts | 307° |
| 2026-04-25 20:52 | 13.86153 | -16.88311 | 16773 ft | 356 kts | 315° |
| 2026-04-25 20:52 | 13.87436 | -16.89416 | 16443 ft | 356 kts | 323° |
| 2026-04-25 20:52 | 13.90450 | -16.90782 | 15675 ft | 361 kts | 339° |
| 2026-04-25 20:52 | 13.92843 | -16.91575 | 15200 ft | 362 kts | 340° |
| 2026-04-25 20:53 | 13.95242 | -16.92346 | 14847 ft | 359 kts | 340° |
| 2026-04-25 20:53 | 13.97618 | -16.93119 | 14475 ft | 357 kts | 340° |
| 2026-04-25 20:53 | 13.99972 | -16.93903 | 14107 ft | 355 kts | 339° |
| 2026-04-25 20:53 | 14.02325 | -16.94701 | 13677 ft | 356 kts | 339° |
| 2026-04-25 20:54 | 14.04678 | -16.95510 | 13204 ft | 356 kts | 339° |
| 2026-04-25 20:54 | 14.07013 | -16.96316 | 12894 ft | 352 kts | 339° |
| 2026-04-25 20:54 | 14.09320 | -16.97116 | 12510 ft | 349 kts | 339° |
| 2026-04-25 20:54 | 14.11622 | -16.97917 | 12084 ft | 349 kts | 339° |
| 2026-04-25 20:55 | 14.13897 | -16.98710 | 11927 ft | 340 kts | 339° |
| 2026-04-25 20:55 | 14.16091 | -16.99471 | 11750 ft | 323 kts | 339° |
| 2026-04-25 20:55 | 14.18172 | -17.00194 | 11458 ft | 309 kts | 340° |
| 2026-04-25 20:55 | 14.20169 | -17.00888 | 11129 ft | 297 kts | 339° |
| 2026-04-25 20:56 | 14.22110 | -17.01565 | 10630 ft | 293 kts | 340° |
| 2026-04-25 20:56 | 14.24042 | -17.02240 | 10077 ft | 293 kts | 340° |
| 2026-04-25 20:56 | 14.25975 | -17.02915 | 9488 ft | 294 kts | 340° |
| 2026-04-25 20:56 | 14.27906 | -17.03588 | 8883 ft | 292 kts | 341° |
| 2026-04-25 20:57 | 14.29822 | -17.04255 | 8259 ft | 287 kts | 341° |
| 2026-04-25 20:57 | 14.31702 | -17.04910 | 7560 ft | 284 kts | 341° |
| 2026-04-25 20:57 | 14.33562 | -17.05558 | 6833 ft | 280 kts | 341° |
| 2026-04-25 20:57 | 14.35391 | -17.06196 | 6322 ft | 270 kts | 341° |
| 2026-04-25 20:58 | 14.37121 | -17.06785 | 5917 ft | 257 kts | 345° |
| 2026-04-25 20:58 | 14.38894 | -17.07044 | 5193 ft | 258 kts | 358° |
| 2026-04-25 20:58 | 14.40640 | -17.07064 | 4892 ft | 246 kts | 360° |
| 2026-04-25 20:58 | 14.42325 | -17.07059 | 4579 ft | 239 kts | 360° |
| 2026-04-25 20:59 | 14.43963 | -17.07066 | 4320 ft | 231 kts | 359° |
| 2026-04-25 20:59 | 14.45537 | -17.07079 | 3992 ft | 219 kts | 360° |
| 2026-04-25 20:59 | 14.46995 | -17.07093 | 3751 ft | 200 kts | 359° |
| 2026-04-25 20:59 | 14.48328 | -17.07106 | 3478 ft | 181 kts | 0° |
| 2026-04-25 21:00 | 14.49521 | -17.07117 | 3251 ft | 164 kts | 359° |
| 2026-04-25 21:00 | 14.49892 | -17.07121 | 3194 ft | 165 kts | 360° |
| 2026-04-25 21:00 | 14.53006 | -17.07150 | 2639 ft | 165 kts | 360° |
| 2026-04-25 21:01 | 14.54134 | -17.07161 | 2428 ft | 161 kts | 1° |
| 2026-04-25 21:01 | 14.55248 | -17.07170 | 2215 ft | 160 kts | 360° |
| 2026-04-25 21:01 | 14.56373 | -17.07182 | 2021 ft | 162 kts | 1° |
| 2026-04-25 21:01 | 14.57506 | -17.07192 | 1820 ft | 163 kts | 0° |
| 2026-04-25 21:02 | 14.58639 | -17.07203 | 1616 ft | 163 kts | 0° |
| 2026-04-25 21:02 | 14.59771 | -17.07213 | 1386 ft | 162 kts | 359° |
| 2026-04-25 21:02 | 14.60888 | -17.07223 | 1166 ft | 160 kts | 359° |
| 2026-04-25 21:02 | 14.61992 | -17.07235 | 984 ft | 159 kts | 360° |
| 2026-04-25 21:03 | 14.63080 | -17.07244 | 785 ft | 157 kts | 359° |
| 2026-04-25 21:03 | 14.64144 | -17.07254 | 584 ft | 151 kts | 359° |
| 2026-04-25 21:03 | 14.65222 | -17.07264 | 418 ft | 155 kts | 358° |
| 2026-04-25 21:03 | 14.66278 | -17.07277 | 305 ft | 124 kts | 359° |
| 2026-04-25 21:04 | 14.66659 | -17.07278 | 307 ft | 13 kts | 7° |